URY001 SKCG-SVMI
Flight info
| Callsign | URY001 |
|---|---|
| Flight time | 1h 51m |
| Altitude | FL210 |
| Route | BAQ MAKBU UTKIV PBL |
| Aircraft | LJ45/M-S/N |
Departure
| Time | 2026-04-20 14:15 |
|---|---|
| Airport | Rafael Nuñez International Airport (SKCG) |
Arrival
| Time | 2026-04-20 16:06 |
|---|---|
| Airport | Maiquetía Simón Bolívar International Airport (SVMI) |
| Time | Latitude | Longitude | Altitude | Speed | Heading |
|---|---|---|---|---|---|
| 2026-04-20 13:52 | 10.44826 | -75.51464 | 8 ft | 0 kts | 274° |
| 2026-04-20 14:07 | 10.44826 | -75.51466 | 8 ft | 1 kts | 272° |
| 2026-04-20 14:07 | 10.44820 | -75.51477 | 8 ft | 3 kts | 212° |
| 2026-04-20 14:07 | 10.44796 | -75.51470 | 8 ft | 5 kts | 147° |
| 2026-04-20 14:07 | 10.44759 | -75.51445 | 8 ft | 8 kts | 147° |
| 2026-04-20 14:08 | 10.44710 | -75.51414 | 8 ft | 8 kts | 147° |
| 2026-04-20 14:08 | 10.44671 | -75.51382 | 8 ft | 6 kts | 130° |
| 2026-04-20 14:08 | 10.44654 | -75.51347 | 8 ft | 5 kts | 110° |
| 2026-04-20 14:08 | 10.44646 | -75.51322 | 8 ft | 3 kts | 108° |
| 2026-04-20 14:09 | 10.44641 | -75.51308 | 8 ft | 2 kts | 113° |
| 2026-04-20 14:09 | 10.44634 | -75.51297 | 8 ft | 2 kts | 127° |
| 2026-04-20 14:09 | 10.44623 | -75.51286 | 8 ft | 3 kts | 143° |
| 2026-04-20 14:09 | 10.44598 | -75.51275 | 8 ft | 5 kts | 172° |
| 2026-04-20 14:10 | 10.44553 | -75.51274 | 8 ft | 8 kts | 181° |
| 2026-04-20 14:10 | 10.44490 | -75.51276 | 8 ft | 10 kts | 182° |
| 2026-04-20 14:10 | 10.44410 | -75.51280 | 8 ft | 13 kts | 182° |
| 2026-04-20 14:10 | 10.44312 | -75.51284 | 8 ft | 15 kts | 182° |
| 2026-04-20 14:11 | 10.44195 | -75.51289 | 8 ft | 18 kts | 184° |
| 2026-04-20 14:11 | 10.44061 | -75.51295 | 8 ft | 21 kts | 183° |
| 2026-04-20 14:11 | 10.43909 | -75.51302 | 8 ft | 23 kts | 182° |
| 2026-04-20 14:11 | 10.43746 | -75.51309 | 8 ft | 23 kts | 183° |
| 2026-04-20 14:12 | 10.43592 | -75.51316 | 8 ft | 21 kts | 182° |
| 2026-04-20 14:12 | 10.43450 | -75.51321 | 8 ft | 20 kts | 183° |
| 2026-04-20 14:12 | 10.43319 | -75.51330 | 8 ft | 18 kts | 181° |
| 2026-04-20 14:12 | 10.43219 | -75.51282 | 8 ft | 16 kts | 131° |
| 2026-04-20 14:13 | 10.43140 | -75.51223 | 8 ft | 13 kts | 183° |
| 2026-04-20 14:13 | 10.43087 | -75.51277 | 8 ft | 10 kts | 258° |
| 2026-04-20 14:13 | 10.43109 | -75.51329 | 8 ft | 8 kts | 346° |
| 2026-04-20 14:13 | 10.43157 | -75.51334 | 8 ft | 6 kts | 3° |
| 2026-04-20 14:14 | 10.43168 | -75.51333 | 8 ft | 0 kts | 3° |
| 2026-04-20 14:14 | 10.43175 | -75.51333 | 8 ft | 11 kts | 3° |
| 2026-04-20 14:14 | 10.43487 | -75.51330 | 8 ft | 80 kts | 7° |
| 2026-04-20 14:14 | 10.44294 | -75.51270 | 8 ft | 152 kts | 1° |
| 2026-04-20 14:15 | 10.45441 | -75.51243 | 713 ft | 157 kts | 4° |
| 2026-04-20 14:15 | 10.46440 | -75.51232 | 1595 ft | 145 kts | 3° |
| 2026-04-20 14:15 | 10.47591 | -75.51187 | 1361 ft | 187 kts | 11° |
| 2026-04-20 14:15 | 10.48822 | -75.50525 | 1184 ft | 211 kts | 50° |
| 2026-04-20 14:16 | 10.49455 | -75.49205 | 1741 ft | 211 kts | 76° |
| 2026-04-20 14:16 | 10.49721 | -75.47736 | 2219 ft | 212 kts | 83° |
| 2026-04-20 14:16 | 10.49903 | -75.46249 | 2673 ft | 213 kts | 84° |
| 2026-04-20 14:16 | 10.50082 | -75.44758 | 3115 ft | 213 kts | 83° |
| 2026-04-20 14:17 | 10.50345 | -75.43273 | 3579 ft | 215 kts | 78° |
| 2026-04-20 14:17 | 10.50731 | -75.41806 | 4047 ft | 216 kts | 74° |
| 2026-04-20 14:17 | 10.51222 | -75.40358 | 4518 ft | 218 kts | 70° |
| 2026-04-20 14:17 | 10.51793 | -75.38929 | 4977 ft | 220 kts | 68° |
| 2026-04-20 14:18 | 10.52423 | -75.37503 | 5429 ft | 222 kts | 66° |
| 2026-04-20 14:18 | 10.53092 | -75.36084 | 5881 ft | 224 kts | 65° |
| 2026-04-20 14:18 | 10.53789 | -75.34662 | 6332 ft | 226 kts | 64° |
| 2026-04-20 14:18 | 10.54504 | -75.33240 | 6782 ft | 228 kts | 64° |
| 2026-04-20 14:19 | 10.55237 | -75.31807 | 7234 ft | 230 kts | 63° |
| 2026-04-20 14:19 | 10.55983 | -75.30365 | 7686 ft | 232 kts | 63° |
| 2026-04-20 14:19 | 10.56740 | -75.28913 | 8138 ft | 234 kts | 63° |
| 2026-04-20 14:19 | 10.57503 | -75.27451 | 8590 ft | 236 kts | 63° |
| 2026-04-20 14:20 | 10.58274 | -75.25979 | 9061 ft | 237 kts | 63° |
| 2026-04-20 14:20 | 10.59052 | -75.24495 | 9556 ft | 240 kts | 62° |
| 2026-04-20 14:20 | 10.59840 | -75.22993 | 10061 ft | 243 kts | 62° |
| 2026-04-20 14:20 | 10.60638 | -75.21475 | 10581 ft | 244 kts | 62° |
| 2026-04-20 14:21 | 10.61439 | -75.19952 | 11077 ft | 245 kts | 63° |
| 2026-04-20 14:21 | 10.62243 | -75.18424 | 11578 ft | 246 kts | 63° |
| 2026-04-20 14:21 | 10.63050 | -75.16888 | 12077 ft | 247 kts | 63° |
| 2026-04-20 14:21 | 10.63862 | -75.15343 | 12579 ft | 249 kts | 63° |
| 2026-04-20 14:22 | 10.64677 | -75.13794 | 13078 ft | 251 kts | 63° |
| 2026-04-20 14:22 | 10.65501 | -75.12226 | 13581 ft | 252 kts | 63° |
| 2026-04-20 14:22 | 10.66329 | -75.10649 | 14083 ft | 254 kts | 63° |
| 2026-04-20 14:22 | 10.67161 | -75.09065 | 14583 ft | 256 kts | 63° |
| 2026-04-20 14:23 | 10.68002 | -75.07465 | 15084 ft | 258 kts | 63° |
| 2026-04-20 14:23 | 10.68850 | -75.05850 | 15585 ft | 260 kts | 63° |
| 2026-04-20 14:23 | 10.69704 | -75.04224 | 16087 ft | 262 kts | 63° |
| 2026-04-20 14:23 | 10.70562 | -75.02588 | 16587 ft | 265 kts | 63° |
| 2026-04-20 14:24 | 10.71431 | -75.00933 | 17089 ft | 267 kts | 63° |
| 2026-04-20 14:24 | 10.72308 | -74.99264 | 17591 ft | 269 kts | 63° |
| 2026-04-20 14:24 | 10.73194 | -74.97577 | 18089 ft | 272 kts | 64° |
| 2026-04-20 14:24 | 10.74085 | -74.95877 | 18589 ft | 275 kts | 64° |
| 2026-04-20 14:25 | 10.74990 | -74.94151 | 19091 ft | 279 kts | 64° |
| 2026-04-20 14:25 | 10.75904 | -74.92407 | 19592 ft | 282 kts | 64° |
| 2026-04-20 14:25 | 10.76831 | -74.90641 | 20096 ft | 285 kts | 64° |
| 2026-04-20 14:25 | 10.77762 | -74.88862 | 20597 ft | 288 kts | 64° |
| 2026-04-20 14:26 | 10.78578 | -74.86990 | 20887 ft | 293 kts | 75° |
| 2026-04-20 14:26 | 10.79038 | -74.84976 | 20982 ft | 295 kts | 83° |
| 2026-04-20 14:26 | 10.79276 | -74.82911 | 20981 ft | 295 kts | 87° |
| 2026-04-20 14:26 | 10.79386 | -74.80833 | 20973 ft | 295 kts | 90° |
| 2026-04-20 14:27 | 10.79424 | -74.78752 | 20968 ft | 295 kts | 91° |
| 2026-04-20 14:27 | 10.79421 | -74.76662 | 20968 ft | 299 kts | 92° |
| 2026-04-20 14:27 | 10.79391 | -74.74535 | 20973 ft | 303 kts | 93° |
| 2026-04-20 14:27 | 10.79345 | -74.72382 | 20971 ft | 307 kts | 93° |
| 2026-04-20 14:28 | 10.79290 | -74.70212 | 20971 ft | 309 kts | 93° |
| 2026-04-20 14:28 | 10.79232 | -74.68128 | 20967 ft | 312 kts | 93° |
| 2026-04-20 14:28 | 10.79167 | -74.65910 | 20970 ft | 315 kts | 93° |
| 2026-04-20 14:28 | 10.79099 | -74.63685 | 20969 ft | 317 kts | 93° |
| 2026-04-20 14:29 | 10.79030 | -74.61448 | 20968 ft | 318 kts | 93° |
| 2026-04-20 14:29 | 10.78959 | -74.59205 | 20968 ft | 319 kts | 93° |
| 2026-04-20 14:29 | 10.78888 | -74.56956 | 20967 ft | 319 kts | 93° |
| 2026-04-20 14:29 | 10.78816 | -74.54703 | 20967 ft | 320 kts | 93° |
| 2026-04-20 14:30 | 10.78743 | -74.52448 | 20967 ft | 320 kts | 93° |
| 2026-04-20 14:30 | 10.78670 | -74.50193 | 20967 ft | 320 kts | 93° |
| 2026-04-20 14:30 | 10.78597 | -74.47936 | 20967 ft | 320 kts | 93° |
| 2026-04-20 14:30 | 10.78523 | -74.45677 | 20967 ft | 320 kts | 93° |
| 2026-04-20 14:31 | 10.78449 | -74.43418 | 20967 ft | 321 kts | 93° |
| 2026-04-20 14:31 | 10.78375 | -74.41158 | 20967 ft | 321 kts | 93° |
| 2026-04-20 14:31 | 10.78301 | -74.38905 | 20971 ft | 318 kts | 93° |
| 2026-04-20 14:31 | 10.78227 | -74.36667 | 20966 ft | 317 kts | 93° |
| 2026-04-20 14:32 | 10.78154 | -74.34441 | 20965 ft | 315 kts | 93° |
| 2026-04-20 14:32 | 10.78097 | -74.32220 | 20965 ft | 314 kts | 92° |
| 2026-04-20 14:32 | 10.78060 | -74.30005 | 20966 ft | 314 kts | 92° |
| 2026-04-20 14:32 | 10.78036 | -74.27793 | 20966 ft | 313 kts | 91° |
| 2026-04-20 14:33 | 10.78022 | -74.25584 | 20966 ft | 313 kts | 91° |
| 2026-04-20 14:33 | 10.78014 | -74.23375 | 20966 ft | 313 kts | 91° |
| 2026-04-20 14:33 | 10.78009 | -74.21168 | 20966 ft | 313 kts | 91° |
| 2026-04-20 14:33 | 10.78006 | -74.18962 | 20966 ft | 313 kts | 91° |
| 2026-04-20 14:34 | 10.78005 | -74.16756 | 20966 ft | 313 kts | 91° |
| 2026-04-20 14:34 | 10.78004 | -74.14551 | 20966 ft | 313 kts | 91° |
| 2026-04-20 14:34 | 10.78003 | -74.12346 | 20966 ft | 313 kts | 91° |
| 2026-04-20 14:34 | 10.78002 | -74.10143 | 21018 ft | 312 kts | 91° |
| 2026-04-20 14:35 | 10.77998 | -74.07933 | 21064 ft | 314 kts | 91° |
| 2026-04-20 14:35 | 10.77965 | -74.05712 | 21076 ft | 314 kts | 92° |
| 2026-04-20 14:35 | 10.77909 | -74.03495 | 21078 ft | 315 kts | 92° |
| 2026-04-20 14:35 | 10.77836 | -74.01277 | 21078 ft | 315 kts | 93° |
| 2026-04-20 14:36 | 10.77753 | -73.99058 | 21077 ft | 315 kts | 93° |
| 2026-04-20 14:36 | 10.77662 | -73.96844 | 21077 ft | 315 kts | 93° |
| 2026-04-20 14:36 | 10.77567 | -73.94625 | 21077 ft | 315 kts | 93° |
| 2026-04-20 14:36 | 10.77469 | -73.92405 | 21077 ft | 315 kts | 93° |
| 2026-04-20 14:37 | 10.77368 | -73.90178 | 21077 ft | 315 kts | 94° |
| 2026-04-20 14:37 | 10.77267 | -73.87959 | 21077 ft | 315 kts | 94° |
| 2026-04-20 14:37 | 10.77165 | -73.85739 | 21077 ft | 315 kts | 94° |
| 2026-04-20 14:37 | 10.77062 | -73.83519 | 21077 ft | 315 kts | 94° |
| 2026-04-20 14:38 | 10.76959 | -73.81301 | 21122 ft | 314 kts | 93° |
| 2026-04-20 14:38 | 10.76859 | -73.79092 | 21184 ft | 313 kts | 92° |
| 2026-04-20 14:38 | 10.76788 | -73.76895 | 21200 ft | 312 kts | 92° |
| 2026-04-20 14:38 | 10.76743 | -73.74698 | 21203 ft | 311 kts | 91° |
| 2026-04-20 14:39 | 10.76712 | -73.72506 | 21204 ft | 311 kts | 91° |
| 2026-04-20 14:39 | 10.76689 | -73.70316 | 21204 ft | 310 kts | 91° |
| 2026-04-20 14:39 | 10.76671 | -73.68128 | 21204 ft | 310 kts | 91° |
| 2026-04-20 14:39 | 10.76656 | -73.65937 | 21204 ft | 310 kts | 91° |
| 2026-04-20 14:40 | 10.76644 | -73.63754 | 21204 ft | 310 kts | 91° |
| 2026-04-20 14:40 | 10.76633 | -73.61569 | 21204 ft | 310 kts | 91° |
| 2026-04-20 14:40 | 10.76622 | -73.59385 | 21204 ft | 310 kts | 91° |
| 2026-04-20 14:40 | 10.76613 | -73.57201 | 21204 ft | 310 kts | 91° |
| 2026-04-20 14:41 | 10.76604 | -73.55018 | 21204 ft | 310 kts | 91° |
| 2026-04-20 14:41 | 10.76594 | -73.52834 | 21204 ft | 310 kts | 91° |
| 2026-04-20 14:41 | 10.76586 | -73.50650 | 21196 ft | 310 kts | 91° |
| 2026-04-20 14:41 | 10.76577 | -73.48464 | 21194 ft | 310 kts | 91° |
| 2026-04-20 14:42 | 10.76568 | -73.46276 | 21194 ft | 310 kts | 91° |
| 2026-04-20 14:42 | 10.76558 | -73.44086 | 21194 ft | 310 kts | 91° |
| 2026-04-20 14:42 | 10.76549 | -73.41894 | 21194 ft | 310 kts | 91° |
| 2026-04-20 14:42 | 10.76539 | -73.39705 | 21193 ft | 310 kts | 91° |
| 2026-04-20 14:43 | 10.76529 | -73.37514 | 21193 ft | 311 kts | 91° |
| 2026-04-20 14:43 | 10.76520 | -73.35330 | 21193 ft | 311 kts | 91° |
| 2026-04-20 14:43 | 10.76510 | -73.33139 | 21193 ft | 311 kts | 91° |
| 2026-04-20 14:43 | 10.76500 | -73.30949 | 21193 ft | 311 kts | 91° |
| 2026-04-20 14:44 | 10.76490 | -73.28758 | 21193 ft | 311 kts | 91° |
| 2026-04-20 14:44 | 10.76480 | -73.26560 | 21193 ft | 311 kts | 91° |
| 2026-04-20 14:44 | 10.76470 | -73.24369 | 21193 ft | 311 kts | 91° |
| 2026-04-20 14:44 | 10.76457 | -73.22176 | 21146 ft | 312 kts | 89° |
| 2026-04-20 14:45 | 10.76445 | -73.19983 | 21079 ft | 310 kts | 89° |
| 2026-04-20 14:45 | 10.76434 | -73.17794 | 21059 ft | 310 kts | 89° |
| 2026-04-20 14:45 | 10.76423 | -73.15605 | 21055 ft | 310 kts | 89° |
| 2026-04-20 14:45 | 10.76413 | -73.13417 | 21055 ft | 310 kts | 89° |
| 2026-04-20 14:46 | 10.76403 | -73.11228 | 21055 ft | 310 kts | 89° |
| 2026-04-20 14:46 | 10.76391 | -73.09039 | 21055 ft | 310 kts | 89° |
| 2026-04-20 14:46 | 10.76380 | -73.06851 | 21055 ft | 310 kts | 89° |
| 2026-04-20 14:46 | 10.76369 | -73.04670 | 21055 ft | 310 kts | 89° |
| 2026-04-20 14:47 | 10.76357 | -73.02482 | 21055 ft | 310 kts | 89° |
| 2026-04-20 14:47 | 10.76345 | -73.00292 | 21055 ft | 310 kts | 89° |
| 2026-04-20 14:47 | 10.76333 | -72.98103 | 21055 ft | 310 kts | 89° |
| 2026-04-20 14:48 | 10.76308 | -72.93727 | 21052 ft | 310 kts | 90° |
| 2026-04-20 14:48 | 10.76296 | -72.91538 | 21013 ft | 311 kts | 90° |
| 2026-04-20 14:48 | 10.76283 | -72.89340 | 21001 ft | 311 kts | 90° |
| 2026-04-20 14:48 | 10.76270 | -72.87153 | 20998 ft | 311 kts | 90° |
| 2026-04-20 14:49 | 10.76257 | -72.84952 | 20998 ft | 311 kts | 90° |
| 2026-04-20 14:49 | 10.76243 | -72.82756 | 20998 ft | 311 kts | 90° |
| 2026-04-20 14:49 | 10.76230 | -72.80560 | 20998 ft | 311 kts | 90° |
| 2026-04-20 14:49 | 10.76216 | -72.78364 | 20998 ft | 311 kts | 90° |
| 2026-04-20 14:50 | 10.76202 | -72.76167 | 20998 ft | 311 kts | 90° |
| 2026-04-20 14:50 | 10.76143 | -72.73972 | 20998 ft | 312 kts | 92° |
| 2026-04-20 14:50 | 10.75962 | -72.71781 | 20998 ft | 312 kts | 95° |
| 2026-04-20 14:50 | 10.75703 | -72.69598 | 20998 ft | 312 kts | 97° |
| 2026-04-20 14:51 | 10.75397 | -72.67422 | 20998 ft | 312 kts | 98° |
| 2026-04-20 14:51 | 10.75060 | -72.65249 | 20998 ft | 312 kts | 98° |
| 2026-04-20 14:51 | 10.74704 | -72.63080 | 21013 ft | 312 kts | 99° |
| 2026-04-20 14:51 | 10.74336 | -72.60912 | 21026 ft | 312 kts | 99° |
| 2026-04-20 14:52 | 10.73959 | -72.58744 | 21030 ft | 312 kts | 99° |
| 2026-04-20 14:52 | 10.73577 | -72.56580 | 21031 ft | 312 kts | 99° |
| 2026-04-20 14:52 | 10.73192 | -72.54412 | 21031 ft | 312 kts | 99° |
| 2026-04-20 14:52 | 10.72804 | -72.52245 | 21031 ft | 312 kts | 99° |
| 2026-04-20 14:53 | 10.72414 | -72.50078 | 21031 ft | 312 kts | 99° |
| 2026-04-20 14:53 | 10.72022 | -72.47907 | 21031 ft | 312 kts | 99° |
| 2026-04-20 14:53 | 10.71631 | -72.45740 | 21031 ft | 312 kts | 99° |
| 2026-04-20 14:53 | 10.71240 | -72.43577 | 21031 ft | 312 kts | 99° |
| 2026-04-20 14:54 | 10.70847 | -72.41410 | 21031 ft | 312 kts | 99° |
| 2026-04-20 14:54 | 10.70453 | -72.39239 | 21031 ft | 312 kts | 99° |
| 2026-04-20 14:54 | 10.70060 | -72.37071 | 21031 ft | 312 kts | 99° |
| 2026-04-20 14:54 | 10.69667 | -72.34907 | 21027 ft | 313 kts | 99° |
| 2026-04-20 14:55 | 10.69272 | -72.32733 | 21015 ft | 313 kts | 99° |
| 2026-04-20 14:55 | 10.68878 | -72.30564 | 21012 ft | 313 kts | 99° |
| 2026-04-20 14:55 | 10.68484 | -72.28394 | 21011 ft | 313 kts | 99° |
| 2026-04-20 14:55 | 10.68089 | -72.26225 | 21011 ft | 313 kts | 99° |
| 2026-04-20 14:56 | 10.67698 | -72.24059 | 21011 ft | 313 kts | 99° |
| 2026-04-20 14:56 | 10.67311 | -72.21885 | 21011 ft | 313 kts | 99° |
| 2026-04-20 14:56 | 10.66928 | -72.19717 | 21011 ft | 313 kts | 99° |
| 2026-04-20 14:56 | 10.66546 | -72.17544 | 21011 ft | 313 kts | 99° |
| 2026-04-20 14:57 | 10.66166 | -72.15371 | 21011 ft | 313 kts | 99° |
| 2026-04-20 14:57 | 10.65786 | -72.13198 | 21011 ft | 313 kts | 99° |
| 2026-04-20 14:57 | 10.65406 | -72.11025 | 21011 ft | 313 kts | 99° |
| 2026-04-20 14:57 | 10.65026 | -72.08846 | 21011 ft | 313 kts | 99° |
| 2026-04-20 14:58 | 10.64648 | -72.06676 | 21011 ft | 313 kts | 99° |
| 2026-04-20 14:58 | 10.64268 | -72.04500 | 21002 ft | 313 kts | 99° |
| 2026-04-20 14:58 | 10.63889 | -72.02328 | 20997 ft | 313 kts | 99° |
| 2026-04-20 14:58 | 10.63510 | -72.00155 | 20996 ft | 313 kts | 99° |
| 2026-04-20 14:59 | 10.63132 | -71.97987 | 20996 ft | 313 kts | 99° |
| 2026-04-20 14:59 | 10.62751 | -71.95809 | 20996 ft | 313 kts | 99° |
| 2026-04-20 14:59 | 10.62372 | -71.93637 | 20996 ft | 313 kts | 99° |
| 2026-04-20 14:59 | 10.61993 | -71.91465 | 20996 ft | 313 kts | 99° |
| 2026-04-20 15:00 | 10.61613 | -71.89293 | 20996 ft | 313 kts | 99° |
| 2026-04-20 15:00 | 10.61234 | -71.87128 | 20996 ft | 313 kts | 99° |
| 2026-04-20 15:00 | 10.60854 | -71.84956 | 20996 ft | 313 kts | 99° |
| 2026-04-20 15:00 | 10.60473 | -71.82777 | 20996 ft | 313 kts | 99° |
| 2026-04-20 15:01 | 10.60092 | -71.80606 | 20996 ft | 313 kts | 99° |
| 2026-04-20 15:01 | 10.59712 | -71.78435 | 20996 ft | 313 kts | 99° |
| 2026-04-20 15:01 | 10.59332 | -71.76263 | 20992 ft | 313 kts | 99° |
| 2026-04-20 15:01 | 10.59062 | -71.74078 | 20985 ft | 313 kts | 93° |
| 2026-04-20 15:02 | 10.59032 | -71.71875 | 20984 ft | 313 kts | 88° |
| 2026-04-20 15:02 | 10.59146 | -71.69676 | 20983 ft | 313 kts | 85° |
| 2026-04-20 15:02 | 10.59345 | -71.67482 | 20983 ft | 313 kts | 84° |
| 2026-04-20 15:02 | 10.59597 | -71.65293 | 20983 ft | 313 kts | 83° |
| 2026-04-20 15:03 | 10.59882 | -71.63108 | 20983 ft | 313 kts | 82° |
| 2026-04-20 15:03 | 10.60188 | -71.60925 | 20983 ft | 313 kts | 82° |
| 2026-04-20 15:03 | 10.60506 | -71.58745 | 20983 ft | 313 kts | 81° |
| 2026-04-20 15:03 | 10.60834 | -71.56567 | 20983 ft | 313 kts | 81° |
| 2026-04-20 15:04 | 10.61167 | -71.54389 | 20983 ft | 313 kts | 81° |
| 2026-04-20 15:04 | 10.61505 | -71.52212 | 20983 ft | 313 kts | 81° |
| 2026-04-20 15:04 | 10.61845 | -71.50035 | 20983 ft | 313 kts | 81° |
| 2026-04-20 15:04 | 10.62186 | -71.47859 | 20983 ft | 313 kts | 81° |
| 2026-04-20 15:05 | 10.62529 | -71.45683 | 20980 ft | 313 kts | 81° |
| 2026-04-20 15:05 | 10.62872 | -71.43507 | 20979 ft | 312 kts | 81° |
| 2026-04-20 15:05 | 10.63216 | -71.41332 | 20979 ft | 312 kts | 81° |
| 2026-04-20 15:05 | 10.63560 | -71.39157 | 20979 ft | 312 kts | 81° |
| 2026-04-20 15:06 | 10.63905 | -71.36983 | 20979 ft | 312 kts | 81° |
| 2026-04-20 15:06 | 10.64249 | -71.34807 | 20979 ft | 312 kts | 81° |
| 2026-04-20 15:06 | 10.64594 | -71.32630 | 20979 ft | 312 kts | 81° |
| 2026-04-20 15:06 | 10.64938 | -71.30454 | 20979 ft | 312 kts | 81° |
| 2026-04-20 15:07 | 10.65282 | -71.28279 | 20979 ft | 312 kts | 81° |
| 2026-04-20 15:07 | 10.65625 | -71.26110 | 20979 ft | 312 kts | 81° |
| 2026-04-20 15:07 | 10.65970 | -71.23928 | 20979 ft | 312 kts | 81° |
| 2026-04-20 15:07 | 10.66312 | -71.21760 | 20979 ft | 312 kts | 81° |
| 2026-04-20 15:08 | 10.66657 | -71.19578 | 20979 ft | 312 kts | 81° |
| 2026-04-20 15:08 | 10.66999 | -71.17407 | 20976 ft | 312 kts | 80° |
| 2026-04-20 15:08 | 10.67341 | -71.15234 | 20974 ft | 312 kts | 80° |
| 2026-04-20 15:08 | 10.67685 | -71.13055 | 20974 ft | 312 kts | 80° |
| 2026-04-20 15:09 | 10.68027 | -71.10881 | 20974 ft | 312 kts | 80° |
| 2026-04-20 15:09 | 10.68370 | -71.08707 | 20974 ft | 312 kts | 80° |
| 2026-04-20 15:09 | 10.68612 | -71.06520 | 20974 ft | 312 kts | 85° |
| 2026-04-20 15:09 | 10.68708 | -71.04321 | 20974 ft | 312 kts | 88° |
| 2026-04-20 15:10 | 10.68718 | -71.02122 | 20974 ft | 312 kts | 89° |
| 2026-04-20 15:10 | 10.68674 | -70.99917 | 20974 ft | 313 kts | 91° |
| 2026-04-20 15:10 | 10.68597 | -70.97713 | 20974 ft | 313 kts | 91° |
| 2026-04-20 15:10 | 10.68498 | -70.95510 | 20974 ft | 313 kts | 92° |
| 2026-04-20 15:11 | 10.68386 | -70.93306 | 20974 ft | 313 kts | 92° |
| 2026-04-20 15:11 | 10.68263 | -70.91102 | 20974 ft | 313 kts | 92° |
| 2026-04-20 15:11 | 10.68135 | -70.88898 | 20975 ft | 313 kts | 92° |
| 2026-04-20 15:11 | 10.68003 | -70.86694 | 20976 ft | 313 kts | 92° |
| 2026-04-20 15:12 | 10.67868 | -70.84490 | 20976 ft | 313 kts | 92° |
| 2026-04-20 15:12 | 10.67730 | -70.82284 | 20976 ft | 313 kts | 92° |
| 2026-04-20 15:12 | 10.67592 | -70.80080 | 20976 ft | 313 kts | 92° |
| 2026-04-20 15:12 | 10.67452 | -70.77875 | 20976 ft | 313 kts | 92° |
| 2026-04-20 15:13 | 10.67312 | -70.75670 | 20976 ft | 313 kts | 92° |
| 2026-04-20 15:13 | 10.67171 | -70.73464 | 20976 ft | 313 kts | 92° |
| 2026-04-20 15:13 | 10.67030 | -70.71259 | 20976 ft | 313 kts | 92° |
| 2026-04-20 15:13 | 10.66888 | -70.69053 | 20976 ft | 313 kts | 92° |
| 2026-04-20 15:14 | 10.66745 | -70.66843 | 20976 ft | 313 kts | 92° |
| 2026-04-20 15:14 | 10.66603 | -70.64638 | 20976 ft | 313 kts | 92° |
| 2026-04-20 15:14 | 10.66461 | -70.62432 | 20976 ft | 313 kts | 92° |
| 2026-04-20 15:14 | 10.66318 | -70.60227 | 20977 ft | 313 kts | 93° |
| 2026-04-20 15:15 | 10.66176 | -70.58024 | 21004 ft | 313 kts | 92° |
| 2026-04-20 15:15 | 10.66032 | -70.55818 | 21015 ft | 314 kts | 92° |
| 2026-04-20 15:15 | 10.65889 | -70.53612 | 21018 ft | 314 kts | 92° |
| 2026-04-20 15:15 | 10.65745 | -70.51403 | 21018 ft | 314 kts | 92° |
| 2026-04-20 15:16 | 10.65602 | -70.49193 | 21018 ft | 314 kts | 92° |
| 2026-04-20 15:16 | 10.65458 | -70.46987 | 21018 ft | 314 kts | 92° |
| 2026-04-20 15:16 | 10.65313 | -70.44769 | 21018 ft | 314 kts | 92° |
| 2026-04-20 15:16 | 10.65168 | -70.42558 | 21018 ft | 314 kts | 92° |
| 2026-04-20 15:17 | 10.65023 | -70.40346 | 21018 ft | 314 kts | 92° |
| 2026-04-20 15:17 | 10.64877 | -70.38135 | 21018 ft | 314 kts | 92° |
| 2026-04-20 15:17 | 10.64731 | -70.35923 | 21018 ft | 314 kts | 92° |
| 2026-04-20 15:17 | 10.64585 | -70.33711 | 21018 ft | 314 kts | 92° |
| 2026-04-20 15:18 | 10.64438 | -70.31500 | 21018 ft | 314 kts | 92° |
| 2026-04-20 15:18 | 10.64291 | -70.29292 | 21023 ft | 315 kts | 92° |
| 2026-04-20 15:18 | 10.64144 | -70.27079 | 21026 ft | 315 kts | 92° |
| 2026-04-20 15:18 | 10.63997 | -70.24864 | 21027 ft | 315 kts | 92° |
| 2026-04-20 15:19 | 10.63849 | -70.22648 | 21028 ft | 315 kts | 92° |
| 2026-04-20 15:19 | 10.63701 | -70.20431 | 21027 ft | 315 kts | 92° |
| 2026-04-20 15:19 | 10.63553 | -70.18213 | 21027 ft | 315 kts | 92° |
| 2026-04-20 15:19 | 10.63404 | -70.15996 | 21027 ft | 315 kts | 92° |
| 2026-04-20 15:20 | 10.63255 | -70.13771 | 21027 ft | 315 kts | 92° |
| 2026-04-20 15:20 | 10.63107 | -70.11557 | 21027 ft | 315 kts | 92° |
| 2026-04-20 15:20 | 10.62958 | -70.09338 | 21027 ft | 315 kts | 92° |
| 2026-04-20 15:20 | 10.62808 | -70.07118 | 21027 ft | 315 kts | 92° |
| 2026-04-20 15:21 | 10.62660 | -70.04899 | 21027 ft | 315 kts | 92° |
| 2026-04-20 15:21 | 10.62510 | -70.02680 | 21027 ft | 315 kts | 92° |
| 2026-04-20 15:21 | 10.62360 | -70.00464 | 21034 ft | 315 kts | 92° |
| 2026-04-20 15:21 | 10.62210 | -69.98238 | 21044 ft | 316 kts | 92° |
| 2026-04-20 15:22 | 10.62060 | -69.96015 | 21047 ft | 316 kts | 92° |
| 2026-04-20 15:22 | 10.61910 | -69.93796 | 21048 ft | 316 kts | 92° |
| 2026-04-20 15:22 | 10.61759 | -69.91562 | 21048 ft | 317 kts | 92° |
| 2026-04-20 15:22 | 10.61608 | -69.89336 | 21048 ft | 317 kts | 92° |
| 2026-04-20 15:23 | 10.61457 | -69.87109 | 21048 ft | 317 kts | 92° |
| 2026-04-20 15:23 | 10.61306 | -69.84884 | 21048 ft | 317 kts | 92° |
| 2026-04-20 15:23 | 10.61155 | -69.82664 | 21046 ft | 311 kts | 92° |
| 2026-04-20 15:23 | 10.61006 | -69.80500 | 21040 ft | 305 kts | 92° |
| 2026-04-20 15:24 | 10.60861 | -69.78376 | 21044 ft | 298 kts | 92° |
| 2026-04-20 15:24 | 10.60718 | -69.76284 | 20828 ft | 298 kts | 92° |
| 2026-04-20 15:24 | 10.60576 | -69.74200 | 20574 ft | 295 kts | 92° |
| 2026-04-20 15:24 | 10.60434 | -69.72127 | 20321 ft | 293 kts | 92° |
| 2026-04-20 15:25 | 10.60294 | -69.70080 | 20069 ft | 291 kts | 92° |
| 2026-04-20 15:25 | 10.60155 | -69.68039 | 19819 ft | 290 kts | 92° |
| 2026-04-20 15:25 | 10.60016 | -69.66007 | 19568 ft | 288 kts | 92° |
| 2026-04-20 15:25 | 10.59877 | -69.63983 | 19318 ft | 287 kts | 92° |
| 2026-04-20 15:26 | 10.59739 | -69.61969 | 19068 ft | 286 kts | 92° |
| 2026-04-20 15:26 | 10.59602 | -69.59964 | 18817 ft | 284 kts | 92° |
| 2026-04-20 15:26 | 10.59464 | -69.57967 | 18567 ft | 283 kts | 92° |
| 2026-04-20 15:26 | 10.59327 | -69.55979 | 18317 ft | 282 kts | 92° |
| 2026-04-20 15:27 | 10.59191 | -69.53999 | 18067 ft | 281 kts | 92° |
| 2026-04-20 15:27 | 10.59055 | -69.52028 | 17834 ft | 279 kts | 92° |
| 2026-04-20 15:27 | 10.58919 | -69.50069 | 17651 ft | 278 kts | 92° |
| 2026-04-20 15:27 | 10.58783 | -69.48116 | 17475 ft | 277 kts | 92° |
| 2026-04-20 15:28 | 10.58647 | -69.46169 | 17301 ft | 277 kts | 92° |
| 2026-04-20 15:28 | 10.58510 | -69.44224 | 17125 ft | 276 kts | 92° |
| 2026-04-20 15:28 | 10.58373 | -69.42287 | 16950 ft | 275 kts | 92° |
| 2026-04-20 15:28 | 10.58237 | -69.40356 | 16774 ft | 274 kts | 92° |
| 2026-04-20 15:29 | 10.58101 | -69.38432 | 16597 ft | 273 kts | 92° |
| 2026-04-20 15:29 | 10.57966 | -69.36516 | 16421 ft | 272 kts | 92° |
| 2026-04-20 15:29 | 10.57830 | -69.34606 | 16246 ft | 271 kts | 92° |
| 2026-04-20 15:29 | 10.57696 | -69.32702 | 16071 ft | 270 kts | 93° |
| 2026-04-20 15:30 | 10.57561 | -69.30801 | 15895 ft | 270 kts | 93° |
| 2026-04-20 15:30 | 10.57427 | -69.28907 | 15719 ft | 269 kts | 93° |
| 2026-04-20 15:30 | 10.57293 | -69.27020 | 15544 ft | 268 kts | 93° |
| 2026-04-20 15:30 | 10.57159 | -69.25138 | 15368 ft | 267 kts | 93° |
| 2026-04-20 15:31 | 10.57026 | -69.23264 | 15193 ft | 266 kts | 93° |
| 2026-04-20 15:31 | 10.56893 | -69.21393 | 15021 ft | 266 kts | 93° |
| 2026-04-20 15:31 | 10.56760 | -69.19531 | 14891 ft | 264 kts | 93° |
| 2026-04-20 15:31 | 10.56627 | -69.17674 | 14765 ft | 264 kts | 93° |
| 2026-04-20 15:32 | 10.56495 | -69.15820 | 14640 ft | 263 kts | 93° |
| 2026-04-20 15:32 | 10.56363 | -69.13968 | 14515 ft | 263 kts | 93° |
| 2026-04-20 15:32 | 10.56231 | -69.12126 | 14391 ft | 262 kts | 93° |
| 2026-04-20 15:32 | 10.56099 | -69.10285 | 14264 ft | 261 kts | 93° |
| 2026-04-20 15:33 | 10.55968 | -69.08450 | 14138 ft | 260 kts | 93° |
| 2026-04-20 15:33 | 10.55837 | -69.06620 | 14011 ft | 260 kts | 93° |
| 2026-04-20 15:33 | 10.55706 | -69.04798 | 13885 ft | 259 kts | 93° |
| 2026-04-20 15:33 | 10.55576 | -69.02982 | 13759 ft | 258 kts | 93° |
| 2026-04-20 15:34 | 10.55446 | -69.01171 | 13633 ft | 257 kts | 93° |
| 2026-04-20 15:34 | 10.55316 | -68.99367 | 13507 ft | 256 kts | 93° |
| 2026-04-20 15:34 | 10.55186 | -68.97567 | 13381 ft | 255 kts | 93° |
| 2026-04-20 15:34 | 10.55059 | -68.95777 | 13256 ft | 255 kts | 93° |
| 2026-04-20 15:35 | 10.54932 | -68.93989 | 13130 ft | 254 kts | 93° |
| 2026-04-20 15:35 | 10.54806 | -68.92207 | 13004 ft | 253 kts | 93° |
| 2026-04-20 15:35 | 10.54680 | -68.90430 | 12877 ft | 252 kts | 93° |
| 2026-04-20 15:35 | 10.54555 | -68.88659 | 12751 ft | 252 kts | 93° |
| 2026-04-20 15:36 | 10.54431 | -68.86893 | 12625 ft | 251 kts | 93° |
| 2026-04-20 15:36 | 10.54306 | -68.85131 | 12499 ft | 250 kts | 93° |
| 2026-04-20 15:36 | 10.54183 | -68.83376 | 12374 ft | 249 kts | 94° |
| 2026-04-20 15:36 | 10.54059 | -68.81626 | 12247 ft | 248 kts | 94° |
| 2026-04-20 15:37 | 10.53936 | -68.79884 | 12121 ft | 247 kts | 94° |
| 2026-04-20 15:37 | 10.53813 | -68.78147 | 11995 ft | 247 kts | 94° |
| 2026-04-20 15:37 | 10.53690 | -68.76415 | 11870 ft | 246 kts | 94° |
| 2026-04-20 15:37 | 10.53567 | -68.74688 | 11745 ft | 245 kts | 94° |
| 2026-04-20 15:38 | 10.53445 | -68.72966 | 11619 ft | 245 kts | 94° |
| 2026-04-20 15:38 | 10.53323 | -68.71245 | 11494 ft | 244 kts | 94° |
| 2026-04-20 15:38 | 10.53201 | -68.69526 | 11368 ft | 244 kts | 94° |
| 2026-04-20 15:38 | 10.53079 | -68.67814 | 11242 ft | 243 kts | 94° |
| 2026-04-20 15:39 | 10.52957 | -68.66105 | 11117 ft | 243 kts | 94° |
| 2026-04-20 15:39 | 10.52836 | -68.64404 | 11054 ft | 241 kts | 94° |
| 2026-04-20 15:39 | 10.52715 | -68.62709 | 11042 ft | 241 kts | 94° |
| 2026-04-20 15:39 | 10.52594 | -68.61013 | 11041 ft | 241 kts | 94° |
| 2026-04-20 15:40 | 10.52472 | -68.59317 | 11040 ft | 241 kts | 94° |
| 2026-04-20 15:40 | 10.52351 | -68.57620 | 11040 ft | 241 kts | 94° |
| 2026-04-20 15:40 | 10.52230 | -68.55923 | 11040 ft | 241 kts | 94° |
| 2026-04-20 15:40 | 10.52108 | -68.54226 | 11038 ft | 242 kts | 94° |
| 2026-04-20 15:41 | 10.51986 | -68.52529 | 11022 ft | 241 kts | 94° |
| 2026-04-20 15:41 | 10.51865 | -68.50832 | 11020 ft | 241 kts | 94° |
| 2026-04-20 15:41 | 10.51743 | -68.49133 | 11020 ft | 241 kts | 94° |
| 2026-04-20 15:41 | 10.51621 | -68.47437 | 11020 ft | 241 kts | 94° |
| 2026-04-20 15:42 | 10.51499 | -68.45741 | 11020 ft | 241 kts | 94° |
| 2026-04-20 15:42 | 10.51377 | -68.44042 | 11020 ft | 241 kts | 94° |
| 2026-04-20 15:42 | 10.51255 | -68.42345 | 11020 ft | 241 kts | 94° |
| 2026-04-20 15:42 | 10.51133 | -68.40648 | 11020 ft | 241 kts | 94° |
| 2026-04-20 15:43 | 10.51010 | -68.38952 | 11020 ft | 241 kts | 94° |
| 2026-04-20 15:43 | 10.50887 | -68.37254 | 11020 ft | 241 kts | 94° |
| 2026-04-20 15:43 | 10.50765 | -68.35557 | 11020 ft | 241 kts | 94° |
| 2026-04-20 15:43 | 10.50643 | -68.33860 | 11019 ft | 241 kts | 94° |
| 2026-04-20 15:44 | 10.50520 | -68.32166 | 11021 ft | 241 kts | 94° |
| 2026-04-20 15:44 | 10.50397 | -68.30469 | 11019 ft | 241 kts | 94° |
| 2026-04-20 15:44 | 10.50274 | -68.28772 | 11020 ft | 241 kts | 94° |
| 2026-04-20 15:44 | 10.50152 | -68.27075 | 11020 ft | 241 kts | 94° |
| 2026-04-20 15:45 | 10.50029 | -68.25378 | 11019 ft | 241 kts | 94° |
| 2026-04-20 15:45 | 10.49905 | -68.23682 | 11024 ft | 241 kts | 94° |
| 2026-04-20 15:45 | 10.49782 | -68.21980 | 11025 ft | 241 kts | 94° |
| 2026-04-20 15:45 | 10.49659 | -68.20283 | 11025 ft | 241 kts | 94° |
| 2026-04-20 15:46 | 10.49535 | -68.18586 | 11026 ft | 241 kts | 94° |
| 2026-04-20 15:46 | 10.49412 | -68.16895 | 11025 ft | 241 kts | 94° |
| 2026-04-20 15:46 | 10.49288 | -68.15193 | 11025 ft | 241 kts | 94° |
| 2026-04-20 15:46 | 10.49164 | -68.13496 | 11026 ft | 241 kts | 94° |
| 2026-04-20 15:47 | 10.49041 | -68.11800 | 11025 ft | 241 kts | 94° |
| 2026-04-20 15:47 | 10.48917 | -68.10102 | 11026 ft | 241 kts | 94° |
| 2026-04-20 15:47 | 10.48808 | -68.08406 | 11026 ft | 241 kts | 94° |
| 2026-04-20 15:47 | 10.48709 | -68.06701 | 10855 ft | 244 kts | 93° |
| 2026-04-20 15:48 | 10.48617 | -68.05003 | 10630 ft | 240 kts | 93° |
| 2026-04-20 15:48 | 10.48538 | -68.03324 | 10401 ft | 238 kts | 91° |
| 2026-04-20 15:48 | 10.48644 | -68.01657 | 10180 ft | 237 kts | 84° |
| 2026-04-20 15:48 | 10.48854 | -68.00006 | 9980 ft | 235 kts | 82° |
| 2026-04-20 15:49 | 10.49092 | -67.98375 | 9805 ft | 234 kts | 82° |
| 2026-04-20 15:49 | 10.49338 | -67.96750 | 9629 ft | 233 kts | 82° |
| 2026-04-20 15:49 | 10.49586 | -67.95130 | 9453 ft | 232 kts | 82° |
| 2026-04-20 15:49 | 10.49833 | -67.93517 | 9277 ft | 231 kts | 82° |
| 2026-04-20 15:50 | 10.50081 | -67.91909 | 9100 ft | 231 kts | 82° |
| 2026-04-20 15:50 | 10.50328 | -67.90304 | 8924 ft | 230 kts | 82° |
| 2026-04-20 15:50 | 10.50573 | -67.88708 | 8748 ft | 229 kts | 82° |
| 2026-04-20 15:50 | 10.50818 | -67.87113 | 8572 ft | 228 kts | 82° |
| 2026-04-20 15:51 | 10.51061 | -67.85528 | 8396 ft | 228 kts | 82° |
| 2026-04-20 15:51 | 10.51302 | -67.83946 | 8220 ft | 227 kts | 82° |
| 2026-04-20 15:51 | 10.51543 | -67.82367 | 8044 ft | 226 kts | 81° |
| 2026-04-20 15:51 | 10.51781 | -67.80798 | 7868 ft | 225 kts | 81° |
| 2026-04-20 15:52 | 10.52017 | -67.79232 | 7692 ft | 224 kts | 81° |
| 2026-04-20 15:52 | 10.52253 | -67.77668 | 7516 ft | 224 kts | 81° |
| 2026-04-20 15:52 | 10.52486 | -67.76112 | 7341 ft | 223 kts | 81° |
| 2026-04-20 15:53 | 10.52945 | -67.73016 | 6990 ft | 221 kts | 81° |
| 2026-04-20 15:53 | 10.53172 | -67.71474 | 6814 ft | 221 kts | 81° |
| 2026-04-20 15:53 | 10.53397 | -67.69941 | 6639 ft | 220 kts | 82° |
| 2026-04-20 15:53 | 10.53624 | -67.68409 | 6464 ft | 219 kts | 83° |
| 2026-04-20 15:54 | 10.53792 | -67.66881 | 6290 ft | 218 kts | 85° |
| 2026-04-20 15:54 | 10.53931 | -67.65345 | 6110 ft | 218 kts | 85° |
| 2026-04-20 15:54 | 10.54060 | -67.63816 | 5936 ft | 217 kts | 85° |
| 2026-04-20 15:54 | 10.54193 | -67.62290 | 5760 ft | 217 kts | 84° |
| 2026-04-20 15:55 | 10.54403 | -67.60784 | 5586 ft | 216 kts | 81° |
| 2026-04-20 15:55 | 10.54647 | -67.59283 | 5410 ft | 215 kts | 81° |
| 2026-04-20 15:55 | 10.54899 | -67.57791 | 5235 ft | 214 kts | 80° |
| 2026-04-20 15:55 | 10.55151 | -67.56307 | 5060 ft | 213 kts | 80° |
| 2026-04-20 15:56 | 10.55402 | -67.54831 | 4885 ft | 212 kts | 80° |
| 2026-04-20 15:56 | 10.55651 | -67.53360 | 4709 ft | 211 kts | 80° |
| 2026-04-20 15:56 | 10.55898 | -67.51898 | 4534 ft | 210 kts | 80° |
| 2026-04-20 15:56 | 10.56141 | -67.50453 | 4366 ft | 202 kts | 80° |
| 2026-04-20 15:57 | 10.56372 | -67.49072 | 4180 ft | 196 kts | 80° |
| 2026-04-20 15:57 | 10.56595 | -67.47729 | 4063 ft | 191 kts | 80° |
| 2026-04-20 15:57 | 10.56812 | -67.46417 | 4028 ft | 188 kts | 80° |
| 2026-04-20 15:57 | 10.57027 | -67.45111 | 4027 ft | 188 kts | 80° |
| 2026-04-20 15:58 | 10.57242 | -67.43804 | 4028 ft | 188 kts | 80° |
| 2026-04-20 15:58 | 10.57458 | -67.42495 | 4027 ft | 188 kts | 80° |
| 2026-04-20 15:58 | 10.57675 | -67.41182 | 4028 ft | 189 kts | 80° |
| 2026-04-20 15:58 | 10.57890 | -67.39870 | 4027 ft | 189 kts | 81° |
| 2026-04-20 15:59 | 10.58078 | -67.38557 | 4028 ft | 189 kts | 82° |
| 2026-04-20 15:59 | 10.58252 | -67.37236 | 4025 ft | 189 kts | 82° |
| 2026-04-20 15:59 | 10.58429 | -67.35916 | 4047 ft | 189 kts | 82° |
| 2026-04-20 15:59 | 10.58581 | -67.34583 | 4055 ft | 191 kts | 84° |
| 2026-04-20 16:00 | 10.58720 | -67.33243 | 4054 ft | 191 kts | 84° |
| 2026-04-20 16:00 | 10.58856 | -67.31896 | 4054 ft | 192 kts | 84° |
| 2026-04-20 16:00 | 10.58945 | -67.30545 | 4054 ft | 192 kts | 87° |
| 2026-04-20 16:00 | 10.58987 | -67.29191 | 4054 ft | 193 kts | 89° |
| 2026-04-20 16:01 | 10.59009 | -67.27835 | 4052 ft | 193 kts | 89° |
| 2026-04-20 16:01 | 10.59027 | -67.26474 | 4054 ft | 193 kts | 89° |
| 2026-04-20 16:01 | 10.59047 | -67.25116 | 4053 ft | 193 kts | 88° |
| 2026-04-20 16:01 | 10.59165 | -67.23762 | 4055 ft | 193 kts | 83° |
| 2026-04-20 16:02 | 10.59336 | -67.22413 | 4052 ft | 193 kts | 82° |
| 2026-04-20 16:02 | 10.59516 | -67.21069 | 4054 ft | 193 kts | 83° |
| 2026-04-20 16:02 | 10.59620 | -67.19709 | 4055 ft | 193 kts | 87° |
| 2026-04-20 16:02 | 10.59672 | -67.18420 | 4156 ft | 189 kts | 88° |
| 2026-04-20 16:03 | 10.59718 | -67.17025 | 4378 ft | 196 kts | 88° |
| 2026-04-20 16:03 | 10.59772 | -67.15506 | 4155 ft | 234 kts | 87° |
| 2026-04-20 16:03 | 10.59895 | -67.13902 | 3871 ft | 218 kts | 85° |
| 2026-04-20 16:03 | 10.60018 | -67.12426 | 3385 ft | 204 kts | 85° |
| 2026-04-20 16:04 | 10.60119 | -67.11019 | 2847 ft | 196 kts | 85° |
| 2026-04-20 16:04 | 10.60209 | -67.09664 | 2328 ft | 187 kts | 85° |
| 2026-04-20 16:04 | 10.60292 | -67.08391 | 1835 ft | 177 kts | 85° |
| 2026-04-20 16:04 | 10.60365 | -67.07165 | 1393 ft | 170 kts | 86° |
| 2026-04-20 16:05 | 10.60435 | -67.05985 | 1061 ft | 168 kts | 86° |
| 2026-04-20 16:05 | 10.60500 | -67.04798 | 821 ft | 170 kts | 87° |
| 2026-04-20 16:05 | 10.60547 | -67.03596 | 618 ft | 169 kts | 88° |
| 2026-04-20 16:05 | 10.60572 | -67.02406 | 433 ft | 168 kts | 88° |
| 2026-04-20 16:06 | 10.60622 | -67.01264 | 256 ft | 152 kts | 87° |
| 2026-04-20 16:06 | 10.60666 | -67.00331 | 239 ft | 107 kts | 85° |
| 2026-04-20 16:06 | 10.60707 | -66.99749 | 239 ft | 62 kts | 88° |
| 2026-04-20 16:06 | 10.60720 | -66.99434 | 239 ft | 34 kts | 87° |
| 2026-04-20 16:07 | 10.60732 | -66.99203 | 239 ft | 31 kts | 87° |
| 2026-04-20 16:07 | 10.60744 | -66.98991 | 239 ft | 29 kts | 86° |
| 2026-04-20 16:07 | 10.60755 | -66.98798 | 239 ft | 26 kts | 87° |
| 2026-04-20 16:07 | 10.60763 | -66.98625 | 239 ft | 22 kts | 98° |
| 2026-04-20 16:08 | 10.60676 | -66.98620 | 239 ft | 14 kts | 210° |
| 2026-04-20 16:08 | 10.60640 | -66.98695 | 239 ft | 11 kts | 263° |
| 2026-04-20 16:08 | 10.60634 | -66.98768 | 239 ft | 10 kts | 266° |
| 2026-04-20 16:08 | 10.60631 | -66.98837 | 239 ft | 9 kts | 268° |
| 2026-04-20 16:09 | 10.60628 | -66.98901 | 239 ft | 9 kts | 268° |
| 2026-04-20 16:09 | 10.60626 | -66.98961 | 239 ft | 8 kts | 268° |
| 2026-04-20 16:09 | 10.60623 | -66.99019 | 239 ft | 9 kts | 263° |
| 2026-04-20 16:09 | 10.60582 | -66.99058 | 239 ft | 10 kts | 176° |
| 2026-04-20 16:10 | 10.60511 | -66.99044 | 239 ft | 11 kts | 165° |
| 2026-04-20 16:10 | 10.60428 | -66.99022 | 239 ft | 13 kts | 165° |
| 2026-04-20 16:10 | 10.60337 | -66.98992 | 239 ft | 14 kts | 162° |
| 2026-04-20 16:10 | 10.60259 | -66.98946 | 239 ft | 12 kts | 98° |
| 2026-04-20 16:11 | 10.60272 | -66.98863 | 239 ft | 12 kts | 73° |
| 2026-04-20 16:11 | 10.60295 | -66.98786 | 239 ft | 11 kts | 73° |
| 2026-04-20 16:11 | 10.60316 | -66.98712 | 239 ft | 11 kts | 80° |
| 2026-04-20 16:11 | 10.60280 | -66.98662 | 239 ft | 9 kts | 161° |
| 2026-04-20 16:12 | 10.60234 | -66.98645 | 239 ft | 2 kts | 160° |
| 2026-04-20 16:12 | 10.60231 | -66.98644 | 239 ft | 0 kts | 160° |